Time,TemperatureF,DewpointF,PressureIn,WindDirection,WindDirectionDegrees,WindSpeedMPH,WindSpeedGustMPH,Humidity,HourlyPrecipIn,Conditions,Clouds,dailyrainin,SoftwareType,DateUTC
2013-03-09 00:00:00,40.6,32.0,29.99,WSW,240,8.1,16.3,71,0.00,,---,0.00,VWS V13.01,2013-03-09 07:00:00,
2013-03-09 00:05:00,40.5,31.5,29.99,SW,228,10.1,10.1,70,0.00,,---,0.00,VWS V13.01,2013-03-09 07:05:00,
2013-03-09 00:10:00,40.6,30.5,29.99,WSW,247,13.2,15.4,67,0.00,,---,0.85,VWS V13.01,2013-03-09 07:10:00,
2013-03-09 00:15:00,40.6,30.2,29.99,West,274,12.3,15.4,66,0.00,,---,0.85,VWS V13.01,2013-03-09 07:15:00,
2013-03-09 00:20:00,40.6,30.2,29.99,WSW,243,7.6,15.4,66,0.00,,---,0.85,VWS V13.01,2013-03-09 07:20:00,
2013-03-09 00:25:00,40.6,29.4,29.99,WSW,252,12.3,15.4,64,0.00,,---,0.85,VWS V13.01,2013-03-09 07:25:00,
2013-03-09 00:30:00,41.0,28.2,29.99,WSW,247,12.3,17.4,60,0.00,,---,0.85,VWS V13.01,2013-03-09 07:30:00,
2013-03-09 00:35:00,41.0,28.2,29.99,SW,227,12.3,17.4,60,0.00,,---,0.85,VWS V13.01,2013-03-09 07:35:00,
2013-03-09 00:41:00,40.8,28.8,29.99,WSW,245,6.3,17.4,62,0.00,,---,0.85,VWS V13.01,2013-03-09 07:41:00,
2013-03-09 00:46:00,40.8,28.4,29.99,West,260,11.0,17.4,61,0.00,,---,0.85,VWS V13.01,2013-03-09 07:46:00,
2013-03-09 00:51:00,40.8,28.8,29.99,WSW,249,6.7,17.4,62,0.00,,---,0.85,VWS V13.01,2013-03-09 07:51:00,
2013-03-09 00:56:00,40.6,28.6,29.99,WSW,248,10.5,17.4,62,0.00,,---,0.85,VWS V13.01,2013-03-09 07:56:00,
2013-03-09 01:01:00,40.6,29.4,30.02,SW,227,12.8,12.8,64,0.00,,---,0.85,VWS V13.01,2013-03-09 08:01:00,
2013-03-09 01:06:00,40.6,28.6,30.02,West,260,5.8,12.8,62,0.00,,---,0.85,VWS V13.01,2013-03-09 08:06:00,
2013-03-09 01:11:00,40.6,28.6,30.02,WSW,250,6.3,13.2,62,0.00,,---,0.85,VWS V13.01,2013-03-09 08:11:00,
2013-03-09 01:16:00,40.6,28.6,30.02,WNW,299,5.4,13.2,62,0.00,,---,0.85,VWS V13.01,2013-03-09 08:16:00,
2013-03-09 01:21:00,40.8,29.2,30.02,West,259,5.8,13.2,63,0.00,,---,0.85,VWS V13.01,2013-03-09 08:21:00,
2013-03-09 01:26:00,40.6,28.6,30.02,West,272,10.5,13.2,62,0.00,,---,0.85,VWS V13.01,2013-03-09 08:26:00,
2013-03-09 01:31:00,40.8,28.4,30.02,WSW,251,10.1,13.2,61,0.00,,---,0.85,VWS V13.01,2013-03-09 08:31:00,
2013-03-09 01:37:00,40.6,29.0,30.02,WSW,243,8.7,13.2,63,0.00,,---,0.85,VWS V13.01,2013-03-09 08:37:00,
2013-03-09 01:42:00,40.8,28.8,30.02,WSW,252,11.0,13.2,62,0.00,,---,0.85,VWS V13.01,2013-03-09 08:42:00,
2013-03-09 01:47:00,40.6,28.3,30.02,West,278,8.7,13.2,61,0.00,,---,0.85,VWS V13.01,2013-03-09 08:47:00,
2013-03-09 01:52:00,40.6,28.3,30.02,WSW,256,7.6,15.0,61,0.00,,---,0.85,VWS V13.01,2013-03-09 08:52:00,
2013-03-09 01:57:00,40.5,28.5,30.02,West,276,8.7,15.0,62,0.00,,---,0.85,VWS V13.01,2013-03-09 08:57:00,
2013-03-09 02:02:00,40.5,28.5,30.02,WNW,300,5.4,5.8,62,0.00,,---,0.85,VWS V13.01,2013-03-09 09:02:00,
2013-03-09 02:07:00,40.3,28.7,30.02,West,273,7.6,7.6,63,0.00,,---,0.85,VWS V13.01,2013-03-09 09:07:00,
2013-03-09 02:12:00,40.3,28.3,30.02,West,260,4.0,7.6,62,0.00,,---,0.85,VWS V13.01,2013-03-09 09:12:00,
2013-03-09 02:18:00,40.1,28.5,30.02,WSW,249,5.4,7.6,63,0.00,,---,0.85,VWS V13.01,2013-03-09 09:18:00,
2013-03-09 02:23:00,40.1,28.5,30.02,West,260,5.4,14.1,63,0.00,,---,0.85,VWS V13.01,2013-03-09 09:23:00,
2013-03-09 02:28:00,39.9,28.0,30.02,SW,225,3.6,14.1,62,0.00,,---,0.85,VWS V13.01,2013-03-09 09:28:00,
2013-03-09 02:33:00,39.9,28.8,30.02,WSW,249,4.9,14.1,64,0.00,,---,0.85,VWS V13.01,2013-03-09 09:33:00,
2013-03-09 02:38:00,39.7,27.8,30.02,WNW,302,8.1,14.1,62,0.00,,---,0.85,VWS V13.01,2013-03-09 09:38:00,
2013-03-09 02:43:00,39.4,29.0,30.02,West,277,0.0,14.1,66,0.00,,---,0.85,VWS V13.01,2013-03-09 09:43:00,
2013-03-09 02:49:00,39.2,28.8,30.02,West,275,0.0,14.1,66,0.00,,---,0.85,VWS V13.01,2013-03-09 09:49:00,
2013-03-09 02:54:00,39.0,29.4,30.02,West,280,2.2,14.1,68,0.00,,---,0.85,VWS V13.01,2013-03-09 09:54:00,
2013-03-09 02:59:00,38.7,28.7,30.02,WNW,300,2.7,14.1,67,0.00,,---,0.85,VWS V13.01,2013-03-09 09:59:00,
2013-03-09 03:04:00,38.5,27.4,30.02,WNW,284,4.9,5.4,64,0.00,,---,0.85,VWS V13.01,2013-03-09 10:04:00,
2013-03-09 03:09:00,38.1,27.0,30.02,West,273,3.6,6.3,64,0.00,,---,0.85,VWS V13.01,2013-03-09 10:09:00,
2013-03-09 03:14:00,38.1,27.4,30.02,WNW,287,7.6,8.3,65,0.00,,---,0.85,VWS V13.01,2013-03-09 10:14:00,
2013-03-09 03:19:00,37.9,27.2,29.99,West,273,4.0,8.3,65,0.00,,---,0.85,VWS V13.01,2013-03-09 10:19:00,
2013-03-09 03:24:00,37.8,27.1,29.99,West,263,4.0,8.3,65,0.00,,---,0.85,VWS V13.01,2013-03-09 10:24:00,
2013-03-09 03:29:00,37.8,27.1,29.99,West,266,3.6,8.3,65,0.00,,---,0.85,VWS V13.01,2013-03-09 10:29:00,
2013-03-09 03:34:00,37.8,27.4,29.99,West,263,5.4,8.3,66,0.00,,---,0.85,VWS V13.01,2013-03-09 10:34:00,
2013-03-09 03:39:00,37.6,26.9,29.99,West,264,2.7,8.3,65,0.00,,---,0.85,VWS V13.01,2013-03-09 10:39:00,
2013-03-09 03:44:00,37.6,27.3,29.99,West,270,3.1,8.3,66,0.00,,---,0.85,VWS V13.01,2013-03-09 10:44:00,
2013-03-09 03:50:00,37.6,27.3,29.99,West,279,3.6,8.3,66,0.00,,---,0.85,VWS V13.01,2013-03-09 10:50:00,
2013-03-09 03:55:00,37.4,26.7,29.99,West,263,4.9,8.3,65,0.00,,---,0.85,VWS V13.01,2013-03-09 10:55:00,
2013-03-09 04:00:00,37.8,27.1,29.99,WSW,254,5.4,8.3,65,0.00,,---,0.85,VWS V13.01,2013-03-09 11:00:00,
2013-03-09 04:05:00,37.6,26.5,30.02,WSW,258,6.3,7.6,64,0.00,,---,0.85,VWS V13.01,2013-03-09 11:05:00,
2013-03-09 04:10:00,37.6,26.5,30.02,West,281,3.1,7.6,64,0.00,,---,0.85,VWS V13.01,2013-03-09 11:10:00,
2013-03-09 04:15:00,37.4,26.4,30.02,West,275,0.0,7.6,64,0.00,,---,0.85,VWS V13.01,2013-03-09 11:15:00,
2013-03-09 04:20:00,37.0,26.4,29.99,West,275,0.0,7.6,65,0.00,,---,0.85,VWS V13.01,2013-03-09 11:20:00,
2013-03-09 04:25:00,36.7,26.4,29.99,West,275,0.0,7.6,66,0.00,,---,0.85,VWS V13.01,2013-03-09 11:25:00,
2013-03-09 04:30:00,36.5,27.0,29.99,West,268,0.0,7.6,68,0.00,,---,0.85,VWS V13.01,2013-03-09 11:30:00,
2013-03-09 04:35:00,36.7,26.4,29.99,West,264,0.0,7.6,66,0.00,,---,0.85,VWS V13.01,2013-03-09 11:35:00,
2013-03-09 04:40:00,36.3,26.8,29.99,West,264,0.0,7.6,68,0.00,,---,0.85,VWS V13.01,2013-03-09 11:40:00,
2013-03-09 04:45:00,36.3,26.4,29.99,ENE,57,0.0,7.6,67,0.00,,---,0.85,VWS V13.01,2013-03-09 11:45:00,
2013-03-09 04:50:00,36.1,26.6,29.99,ENE,57,0.0,7.6,68,0.00,,---,0.85,VWS V13.01,2013-03-09 11:50:00,
2013-03-09 04:56:00,36.0,26.4,29.99,ENE,62,0.0,7.6,68,0.00,,---,0.85,VWS V13.01,2013-03-09 11:56:00,
2013-03-09 05:01:00,35.8,26.6,29.99,ENE,62,0.0,0.0,69,0.00,,---,0.85,VWS V13.01,2013-03-09 12:01:00,
2013-03-09 05:06:00,35.8,25.9,29.99,ESE,123,3.6,5.8,67,0.00,,---,0.85,VWS V13.01,2013-03-09 12:06:00,
2013-03-09 05:11:00,36.1,26.3,29.99,ESE,118,0.0,5.8,67,0.00,,---,0.85,VWS V13.01,2013-03-09 12:11:00,
2013-03-09 05:16:00,36.1,25.9,30.02,ESE,118,0.0,5.8,66,0.00,,---,0.85,VWS V13.01,2013-03-09 12:16:00,
2013-03-09 05:21:00,36.1,26.3,30.02,ESE,118,0.0,5.8,67,0.00,,---,0.85,VWS V13.01,2013-03-09 12:21:00,
2013-03-09 05:26:00,36.1,26.6,30.02,ESE,118,0.0,5.8,68,0.00,,---,0.85,VWS V13.01,2013-03-09 12:26:00,
2013-03-09 05:31:00,36.5,26.6,30.02,ESE,118,0.0,5.8,67,0.00,,---,0.85,VWS V13.01,2013-03-09 12:31:00,
2013-03-09 05:36:00,36.5,25.9,30.02,NNW,328,0.0,5.8,65,0.00,,---,0.85,VWS V13.01,2013-03-09 12:36:00,
2013-03-09 05:41:00,36.5,25.9,30.02,NNW,328,0.0,5.8,65,0.00,,---,0.85,VWS V13.01,2013-03-09 12:41:00,
2013-03-09 05:46:00,36.9,25.8,30.02,NE,38,0.0,5.8,64,0.00,,---,0.85,VWS V13.01,2013-03-09 12:46:00,
2013-03-09 05:51:00,37.0,26.0,30.02,NE,34,0.0,5.8,64,0.00,,---,0.85,VWS V13.01,2013-03-09 12:51:00,
2013-03-09 05:57:00,37.0,26.0,30.02,North,10,0.0,5.8,64,0.00,,---,0.85,VWS V13.01,2013-03-09 12:57:00,
2013-03-09 06:02:00,37.0,25.2,30.02,North,10,0.0,0.0,62,0.00,,---,0.85,VWS V13.01,2013-03-09 13:02:00,
2013-03-09 06:07:00,37.2,25.4,30.02,West,280,0.0,0.0,62,0.00,,---,0.85,VWS V13.01,2013-03-09 13:07:00,
2013-03-09 06:12:00,37.0,24.9,30.02,West,280,0.0,0.0,61,0.00,,---,0.85,VWS V13.01,2013-03-09 13:12:00,
2013-03-09 06:17:00,37.0,25.6,30.02,NW,319,0.0,0.0,63,0.00,,---,0.85,VWS V13.01,2013-03-09 13:17:00,
2013-03-09 06:22:00,37.0,24.9,30.02,West,281,2.7,5.4,61,0.00,,---,0.85,VWS V13.01,2013-03-09 13:22:00,
2013-03-09 06:27:00,37.0,25.6,30.02,South,171,2.7,5.4,63,0.00,,---,0.85,VWS V13.01,2013-03-09 13:27:00,
2013-03-09 06:32:00,37.0,26.4,30.02,SSE,166,2.2,5.4,65,0.00,,---,0.85,VWS V13.01,2013-03-09 13:32:00,
2013-03-09 06:37:00,37.4,27.1,30.02,SSW,200,3.1,5.4,66,0.00,,---,0.85,VWS V13.01,2013-03-09 13:37:00,
2013-03-09 06:42:00,37.4,27.1,30.02,SW,226,0.0,5.4,66,0.00,,---,0.85,VWS V13.01,2013-03-09 13:42:00,
2013-03-09 06:47:00,37.4,26.4,30.02,SW,226,0.0,5.4,64,0.00,,---,0.85,VWS V13.01,2013-03-09 13:47:00,
2013-03-09 06:52:00,37.6,26.5,30.02,SW,226,0.0,5.4,64,0.00,,---,0.85,VWS V13.01,2013-03-09 13:52:00,
2013-03-09 06:58:00,37.8,27.1,30.02,South,169,3.1,5.4,65,0.00,,---,0.85,VWS V13.01,2013-03-09 13:58:00,
2013-03-09 07:03:00,38.1,26.6,30.02,SSW,210,4.9,5.8,63,0.00,,---,0.85,VWS V13.01,2013-03-09 14:03:00,
2013-03-09 07:08:00,38.3,27.2,30.02,SW,221,4.0,6.3,64,0.00,,---,0.85,VWS V13.01,2013-03-09 14:08:00,
2013-03-09 07:13:00,38.3,26.8,30.02,ESE,102,5.4,6.3,63,0.00,,---,0.85,VWS V13.01,2013-03-09 14:13:00,
2013-03-09 07:18:00,38.1,27.0,30.02,SE,127,5.4,6.3,64,0.00,,---,0.85,VWS V13.01,2013-03-09 14:18:00,
2013-03-09 07:23:00,38.5,26.6,30.02,ESE,107,2.7,6.3,62,0.00,,---,0.85,VWS V13.01,2013-03-09 14:23:00,
2013-03-09 07:28:00,38.7,27.5,30.02,SE,136,0.0,6.3,64,0.00,,---,0.85,VWS V13.01,2013-03-09 14:28:00,
2013-03-09 07:33:00,38.8,28.1,30.05,South,184,3.6,6.3,65,0.00,,---,0.85,VWS V13.01,2013-03-09 14:33:00,
2013-03-09 07:38:00,39.0,28.6,30.05,SSE,157,5.4,6.3,66,0.00,,---,0.85,VWS V13.01,2013-03-09 14:38:00,
2013-03-09 07:43:00,39.4,29.0,30.05,SSW,209,4.9,6.3,66,0.00,,---,0.85,VWS V13.01,2013-03-09 14:43:00,
2013-03-09 07:48:00,39.4,28.2,30.05,SSW,200,5.4,6.3,64,0.00,,---,0.85,VWS V13.01,2013-03-09 14:48:00,
2013-03-09 07:54:00,39.7,28.2,30.05,SSW,209,4.0,8.3,63,0.00,,---,0.85,VWS V13.01,2013-03-09 14:54:00,
2013-03-09 07:59:00,39.9,28.4,30.05,SW,224,6.3,8.3,63,0.00,,---,0.85,VWS V13.01,2013-03-09 14:59:00,
2013-03-09 08:04:00,40.5,28.9,30.05,SSW,210,5.8,6.3,63,0.00,,---,0.85,VWS V13.01,2013-03-09 15:04:00,
2013-03-09 08:09:00,40.8,27.6,30.05,SSW,213,5.8,6.3,59,0.00,,---,0.85,VWS V13.01,2013-03-09 15:09:00,
2013-03-09 08:14:00,41.4,28.9,30.05,South,180,5.8,8.1,61,0.00,,---,0.85,VWS V13.01,2013-03-09 15:14:00,
2013-03-09 08:19:00,41.5,28.3,30.05,SW,216,5.4,8.3,59,0.00,,---,0.85,VWS V13.01,2013-03-09 15:19:00,
2013-03-09 08:24:00,41.7,28.0,30.05,South,189,6.3,8.3,58,0.00,,---,0.85,VWS V13.01,2013-03-09 15:24:00,
2013-03-09 08:29:00,41.7,28.0,30.05,SW,215,8.1,8.3,58,0.00,,---,0.85,VWS V13.01,2013-03-09 15:29:00,
2013-03-09 08:35:00,41.7,27.2,30.05,SW,222,5.4,8.3,56,0.00,,---,0.85,VWS V13.01,2013-03-09 15:35:00,
2013-03-09 08:40:00,41.9,27.8,30.05,SW,232,6.3,8.3,57,0.00,,---,0.85,VWS V13.01,2013-03-09 15:40:00,
2013-03-09 08:45:00,42.8,28.6,30.05,SSW,211,5.8,8.3,57,0.00,,---,0.85,VWS V13.01,2013-03-09 15:45:00,
2013-03-09 08:50:00,43.2,28.1,30.05,SW,215,6.3,8.3,55,0.00,,---,0.85,VWS V13.01,2013-03-09 15:50:00,
2013-03-09 08:55:00,43.0,27.0,30.05,SW,220,5.8,8.7,53,0.00,,---,0.85,VWS V13.01,2013-03-09 15:55:00,
2013-03-09 09:00:00,43.0,27.0,30.05,SW,225,3.1,3.1,53,0.00,,---,0.85,VWS V13.01,2013-03-09 16:00:00,
2013-03-09 09:05:00,43.3,27.8,30.05,SW,231,6.3,6.3,54,0.00,,---,0.85,VWS V13.01,2013-03-09 16:05:00,
2013-03-09 09:10:00,43.3,26.9,30.05,NW,305,2.7,7.2,52,0.00,,---,0.85,VWS V13.01,2013-03-09 16:10:00,
2013-03-09 09:15:00,43.7,27.2,30.05,WNW,302,3.1,8.1,52,0.00,,---,0.85,VWS V13.01,2013-03-09 16:15:00,
2013-03-09 09:20:00,44.4,27.9,30.05,WNW,301,3.6,8.1,52,0.00,,---,0.85,VWS V13.01,2013-03-09 16:20:00,
2013-03-09 09:25:00,44.4,27.4,30.05,West,259,8.3,10.1,51,0.00,,---,0.85,VWS V13.01,2013-03-09 16:25:00,
2013-03-09 09:31:00,44.2,27.7,30.05,SW,232,8.7,13.2,52,0.00,,---,0.85,VWS V13.01,2013-03-09 16:31:00,
2013-03-09 09:36:00,44.2,27.3,30.05,WSW,245,4.0,13.2,51,0.00,,---,0.85,VWS V13.01,2013-03-09 16:36:00,
2013-03-09 09:41:00,44.8,27.8,30.05,WSW,258,5.8,13.2,51,0.00,,---,0.85,VWS V13.01,2013-03-09 16:41:00,
2013-03-09 09:46:00,45.0,27.5,30.05,WSW,253,7.6,13.2,50,0.00,,---,0.85,VWS V13.01,2013-03-09 16:46:00,
2013-03-09 09:51:00,45.1,28.1,30.05,West,259,12.8,13.2,51,0.00,,---,0.85,VWS V13.01,2013-03-09 16:51:00,
2013-03-09 09:56:00,45.5,28.4,30.05,WSW,243,8.7,13.2,51,0.00,,---,0.85,VWS V13.01,2013-03-09 16:56:00,
2013-03-09 10:01:00,45.0,27.5,30.05,SW,227,8.1,8.7,50,0.00,,---,0.85,VWS V13.01,2013-03-09 17:01:00,
2013-03-09 10:06:00,44.8,26.8,30.05,WSW,250,10.1,10.1,49,0.00,,---,0.85,VWS V13.01,2013-03-09 17:06:00,
2013-03-09 10:11:00,44.8,26.3,30.05,WNW,294,9.6,10.1,48,0.00,,---,0.85,VWS V13.01,2013-03-09 17:11:00,
2013-03-09 10:16:00,45.0,26.5,30.08,West,275,6.7,10.1,48,0.00,,---,0.85,VWS V13.01,2013-03-09 17:16:00,
2013-03-09 10:22:00,45.5,27.0,30.08,WNW,291,10.1,10.1,48,0.00,,---,0.85,VWS V13.01,2013-03-09 17:22:00,
2013-03-09 10:27:00,45.1,26.1,30.08,WNW,286,8.1,14.5,47,0.00,,---,0.85,VWS V13.01,2013-03-09 17:27:00,
2013-03-09 10:32:00,44.8,25.8,30.08,West,269,11.0,14.5,47,0.00,,---,0.85,VWS V13.01,2013-03-09 17:32:00,
2013-03-09 10:37:00,45.3,26.3,30.08,WNW,287,10.1,14.5,47,0.00,,---,0.85,VWS V13.01,2013-03-09 17:37:00,
2013-03-09 10:42:00,45.5,25.9,30.08,WSW,253,7.6,14.5,46,0.00,,---,0.85,VWS V13.01,2013-03-09 17:42:00,
2013-03-09 10:47:00,45.1,26.1,30.05,West,280,10.5,14.5,47,0.00,,---,0.85,VWS V13.01,2013-03-09 17:47:00,
2013-03-09 10:52:00,45.5,26.5,30.05,WNW,298,6.3,14.5,47,0.00,,---,0.85,VWS V13.01,2013-03-09 17:52:00,
2013-03-09 10:57:00,45.9,28.3,30.05,WSW,250,10.5,14.5,50,0.00,,---,0.85,VWS V13.01,2013-03-09 17:57:00,
2013-03-09 11:02:00,46.9,28.3,30.05,SW,236,5.4,10.1,48,0.00,,---,0.85,VWS V13.01,2013-03-09 18:02:00,
2013-03-09 11:07:00,46.9,27.3,30.05,WNW,290,11.0,12.8,46,0.00,,---,0.85,VWS V13.01,2013-03-09 18:07:00,
2013-03-09 11:12:00,47.3,28.6,30.05,SSW,210,8.3,13.2,48,0.00,,---,0.85,VWS V13.01,2013-03-09 18:12:00,
2013-03-09 11:18:00,46.9,26.7,30.05,West,262,8.1,13.2,45,0.00,,---,0.85,VWS V13.01,2013-03-09 18:18:00,
2013-03-09 11:23:00,47.7,28.4,30.05,West,264,10.1,13.2,47,0.00,,---,0.85,VWS V13.01,2013-03-09 18:23:00,
2013-03-09 11:28:00,47.3,27.0,30.05,WSW,251,8.7,13.2,45,0.00,,---,0.85,VWS V13.01,2013-03-09 18:28:00,
2013-03-09 11:33:00,47.7,27.4,30.05,WNW,283,10.5,13.2,45,0.00,,---,0.85,VWS V13.01,2013-03-09 18:33:00,
2013-03-09 11:38:00,47.8,27.0,30.05,West,273,11.9,13.6,44,0.00,,---,0.85,VWS V13.01,2013-03-09 18:38:00,
2013-03-09 11:43:00,48.4,27.5,30.05,WNW,284,12.3,13.6,44,0.00,,---,0.85,VWS V13.01,2013-03-09 18:43:00,
2013-03-09 11:48:00,48.7,27.8,30.05,WNW,292,16.3,17.4,44,0.00,,---,0.85,VWS V13.01,2013-03-09 18:48:00,
2013-03-09 11:53:00,48.9,27.4,30.05,WNW,286,5.8,17.4,43,0.00,,---,0.85,VWS V13.01,2013-03-09 18:53:00,
2013-03-09 11:59:00,48.6,26.5,30.05,West,266,13.2,17.4,42,0.00,,---,0.85,VWS V13.01,2013-03-09 18:59:00,
2013-03-09 12:00:00,48.4,26.4,30.05,West,265,8.1,17.4,42,0.00,,---,0.85,VWS V13.01,2013-03-09 19:00:00,
2013-03-09 12:06:00,48.9,26.9,30.05,WNW,299,10.5,10.5,42,0.00,,---,0.85,VWS V13.01,2013-03-09 19:06:00,
2013-03-09 12:11:00,49.3,27.8,30.05,West,265,13.2,13.2,43,0.00,,---,0.00,VWS V13.01,2013-03-09 19:11:00,
2013-03-09 12:16:00,49.5,27.9,30.05,West,261,14.5,15.0,43,0.00,,---,0.85,VWS V13.01,2013-03-09 19:16:00,
2013-03-09 12:21:00,48.9,26.9,30.05,WSW,256,15.4,15.4,42,0.00,,---,0.85,VWS V13.01,2013-03-09 19:21:00,
2013-03-09 12:26:00,49.5,27.3,30.05,WNW,286,11.0,17.4,42,0.00,,---,0.85,VWS V13.01,2013-03-09 19:26:00,
2013-03-09 12:31:00,49.8,27.7,30.05,WSW,256,10.1,17.4,42,0.00,,---,0.85,VWS V13.01,2013-03-09 19:31:00,
2013-03-09 12:37:00,50.2,28.0,30.05,SW,236,8.1,17.4,42,0.00,,---,0.85,VWS V13.01,2013-03-09 19:37:00,
2013-03-09 12:42:00,50.4,28.2,30.05,WSW,247,11.0,17.4,42,0.00,,---,0.85,VWS V13.01,2013-03-09 19:42:00,
2013-03-09 12:47:00,50.4,27.6,30.05,West,280,13.2,17.4,41,0.00,,---,0.85,VWS V13.01,2013-03-09 19:47:00,
2013-03-09 12:52:00,51.1,28.8,30.05,SW,227,8.7,17.4,42,0.00,,---,0.85,VWS V13.01,2013-03-09 19:52:00,
2013-03-09 12:57:00,50.9,28.1,30.05,WSW,249,8.3,19.2,41,0.00,,---,0.85,VWS V13.01,2013-03-09 19:57:00,
2013-03-09 13:02:00,49.5,26.8,30.05,West,270,10.1,18.3,41,0.00,,---,0.85,VWS V13.01,2013-03-09 20:02:00,
2013-03-09 13:08:00,49.1,26.4,30.05,WSW,258,8.7,18.3,41,0.00,,---,0.85,VWS V13.01,2013-03-09 20:08:00,
2013-03-09 13:13:00,48.4,25.8,30.05,West,263,15.0,18.3,41,0.00,,---,0.85,VWS V13.01,2013-03-09 20:13:00,
2013-03-09 13:18:00,48.6,26.5,30.02,WSW,244,8.7,18.3,42,0.00,,---,0.85,VWS V13.01,2013-03-09 20:18:00,
2013-03-09 13:23:00,48.6,26.5,30.02,WNW,291,8.1,18.3,42,0.00,,---,0.85,VWS V13.01,2013-03-09 20:23:00,
2013-03-09 13:28:00,48.7,26.1,30.02,West,279,12.8,18.3,41,0.00,,---,0.85,VWS V13.01,2013-03-09 20:28:00,
2013-03-09 13:33:00,48.7,26.1,30.02,WSW,254,11.9,18.3,41,0.00,,---,0.85,VWS V13.01,2013-03-09 20:33:00,
2013-03-09 13:38:00,49.1,27.0,30.02,WNW,287,5.8,18.3,42,0.00,,---,0.85,VWS V13.01,2013-03-09 20:38:00,
2013-03-09 13:44:00,48.7,26.1,30.02,WSW,253,12.3,18.3,41,0.00,,---,0.85,VWS V13.01,2013-03-09 20:44:00,
2013-03-09 13:49:00,49.1,27.0,30.02,West,260,7.6,18.3,42,0.00,,---,0.85,VWS V13.01,2013-03-09 20:49:00,
2013-03-09 13:54:00,50.0,27.8,30.02,WSW,253,16.8,18.3,42,0.00,,---,0.85,VWS V13.01,2013-03-09 20:54:00,
2013-03-09 13:59:00,49.1,27.0,30.02,West,261,15.0,18.3,42,0.00,,---,0.85,VWS V13.01,2013-03-09 20:59:00,
2013-03-09 14:04:00,49.3,26.6,30.02,West,273,11.0,17.0,41,0.00,,---,0.85,VWS V13.01,2013-03-09 21:04:00,
2013-03-09 14:09:00,48.7,26.7,30.02,West,278,13.2,17.0,42,0.00,,---,0.85,VWS V13.01,2013-03-09 21:09:00,
2013-03-09 14:14:00,48.7,26.1,30.02,West,276,11.0,19.7,41,0.00,,---,0.85,VWS V13.01,2013-03-09 21:14:00,
2013-03-09 14:19:00,48.9,26.9,30.02,WSW,258,17.0,19.7,42,0.00,,---,0.85,VWS V13.01,2013-03-09 21:19:00,
2013-03-09 14:24:00,48.9,26.9,30.02,WSW,246,10.1,19.7,42,0.00,,---,0.85,VWS V13.01,2013-03-09 21:24:00,
2013-03-09 14:30:00,49.6,27.5,30.02,WSW,253,13.2,19.7,42,0.00,,---,0.85,VWS V13.01,2013-03-09 21:30:00,
2013-03-09 14:35:00,49.5,27.3,30.02,West,267,12.3,19.7,42,0.00,,---,0.85,VWS V13.01,2013-03-09 21:35:00,
2013-03-09 14:40:00,49.8,27.7,30.02,WNW,292,11.0,19.7,42,0.00,,---,0.85,VWS V13.01,2013-03-09 21:40:00,
2013-03-09 14:45:00,48.7,28.4,30.02,WSW,246,15.4,19.7,45,0.00,,---,0.85,VWS V13.01,2013-03-09 21:45:00,
2013-03-09 14:50:00,48.9,30.6,30.02,WSW,247,8.1,19.7,49,0.00,,---,0.85,VWS V13.01,2013-03-09 21:50:00,
2013-03-09 14:55:00,49.1,30.8,30.02,WSW,246,10.5,19.7,49,0.00,,---,0.85,VWS V13.01,2013-03-09 21:55:00,
2013-03-09 15:00:00,49.5,29.6,30.02,West,271,8.7,12.8,46,0.00,,---,0.85,VWS V13.01,2013-03-09 22:00:00,
2013-03-09 15:06:00,49.8,30.4,30.02,West,260,8.1,13.6,47,0.00,,---,0.85,VWS V13.01,2013-03-09 22:06:00,
2013-03-09 15:11:00,49.6,29.7,30.02,WNW,293,13.2,15.4,46,0.00,,---,0.85,VWS V13.01,2013-03-09 22:11:00,
2013-03-09 15:16:00,49.6,29.2,30.02,WSW,245,11.0,15.4,45,0.00,,---,0.85,VWS V13.01,2013-03-09 22:16:00,
2013-03-09 15:21:00,48.9,28.0,30.02,West,280,12.3,15.4,44,0.00,,---,0.85,VWS V13.01,2013-03-09 22:21:00,
2013-03-09 15:26:00,49.5,28.5,30.02,SW,224,15.4,15.4,44,0.00,,---,0.85,VWS V13.01,2013-03-09 22:26:00,
2013-03-09 15:31:00,50.2,28.6,30.05,West,276,12.8,15.4,43,0.00,,---,0.85,VWS V13.01,2013-03-09 22:31:00,
2013-03-09 15:36:00,49.5,27.9,30.05,WNW,284,8.7,15.4,43,0.00,,---,0.85,VWS V13.01,2013-03-09 22:36:00,
2013-03-09 15:41:00,48.6,27.6,30.05,West,279,12.3,16.8,44,0.00,,---,0.85,VWS V13.01,2013-03-09 22:41:00,
2013-03-09 15:46:00,48.2,28.4,30.05,WNW,291,10.1,16.8,46,0.00,,---,0.85,VWS V13.01,2013-03-09 22:46:00,
2013-03-09 15:52:00,47.7,28.4,30.05,West,277,15.0,16.8,47,0.00,,---,0.85,VWS V13.01,2013-03-09 22:52:00,
2013-03-09 15:57:00,47.3,28.6,30.05,West,262,8.1,17.4,48,0.00,,---,0.85,VWS V13.01,2013-03-09 22:57:00,
2013-03-09 16:02:00,47.3,28.6,30.05,West,263,11.0,15.9,48,0.00,,---,0.85,VWS V13.01,2013-03-09 23:02:00,
2013-03-09 16:07:00,48.2,29.5,30.05,WNW,288,8.7,16.8,48,0.00,,---,0.85,VWS V13.01,2013-03-09 23:07:00,
2013-03-09 16:12:00,48.6,29.3,30.05,WNW,288,10.1,16.8,47,0.00,,---,0.85,VWS V13.01,2013-03-09 23:12:00,
2013-03-09 16:17:00,48.6,29.3,30.05,West,271,11.0,16.8,47,0.00,,---,0.85,VWS V13.01,2013-03-09 23:17:00,
2013-03-09 16:22:00,48.6,28.7,30.05,West,273,11.9,16.8,46,0.00,,---,0.85,VWS V13.01,2013-03-09 23:22:00,
2013-03-09 16:27:00,48.4,28.6,30.05,West,280,13.2,16.8,46,0.00,,---,0.85,VWS V13.01,2013-03-09 23:27:00,
2013-03-09 16:32:00,48.2,27.9,30.05,West,278,10.5,16.8,45,0.00,,---,0.85,VWS V13.01,2013-03-09 23:32:00,
2013-03-09 16:37:00,47.3,27.6,30.05,WNW,287,8.7,16.8,46,0.00,,---,0.85,VWS V13.01,2013-03-09 23:37:00,
2013-03-09 16:43:00,46.9,27.8,30.05,WNW,287,8.3,16.8,47,0.00,,---,0.85,VWS V13.01,2013-03-09 23:43:00,
2013-03-09 16:48:00,46.6,26.9,30.05,WNW,297,10.1,16.8,46,0.00,,---,0.85,VWS V13.01,2013-03-09 23:48:00,
2013-03-09 16:53:00,46.4,26.8,30.05,West,267,8.1,16.8,46,0.00,,---,0.85,VWS V13.01,2013-03-09 23:53:00,
2013-03-09 16:58:00,46.2,27.1,30.05,West,261,7.6,16.8,47,0.00,,---,0.85,VWS V13.01,2013-03-09 23:58:00,
2013-03-09 17:03:00,46.0,27.0,30.05,WNW,287,11.0,11.0,47,0.00,,---,0.85,VWS V13.01,2013-03-10 00:03:00,
2013-03-09 17:08:00,46.0,27.0,30.05,West,272,11.9,11.9,47,0.00,,---,0.85,VWS V13.01,2013-03-10 00:08:00,
2013-03-09 17:13:00,45.9,26.8,30.05,West,279,5.4,11.9,47,0.00,,---,0.85,VWS V13.01,2013-03-10 00:13:00,
2013-03-09 17:18:00,46.0,27.0,30.05,West,271,8.3,11.9,47,0.00,,---,0.85,VWS V13.01,2013-03-10 00:18:00,
2013-03-09 17:23:00,45.9,26.8,30.05,NW,326,8.7,12.8,47,0.00,,---,0.85,VWS V13.01,2013-03-10 00:23:00,
2013-03-09 17:29:00,45.1,28.6,30.05,WNW,287,10.5,12.8,52,0.00,,---,0.85,VWS V13.01,2013-03-10 00:29:00,
2013-03-09 17:34:00,45.0,28.9,30.05,NW,320,5.8,12.8,53,0.00,,---,0.85,VWS V13.01,2013-03-10 00:34:00,
2013-03-09 17:39:00,45.0,28.4,30.05,NW,321,10.1,12.8,52,0.00,,---,0.85,VWS V13.01,2013-03-10 00:39:00,
2013-03-09 17:44:00,45.1,27.6,30.05,WNW,296,6.3,12.8,50,0.00,,---,0.85,VWS V13.01,2013-03-10 00:44:00,
2013-03-09 17:49:00,45.1,27.6,30.08,WNW,284,8.1,13.2,50,0.00,,---,0.85,VWS V13.01,2013-03-10 00:49:00,
2013-03-09 17:54:00,44.8,28.2,30.08,WNW,297,8.7,13.2,52,0.00,,---,0.85,VWS V13.01,2013-03-10 00:54:00,
2013-03-09 17:59:00,44.4,29.3,30.08,WNW,294,8.7,13.2,55,0.00,,---,0.85,VWS V13.01,2013-03-10 00:59:00,
2013-03-09 18:04:00,44.1,28.9,30.08,WNW,290,5.8,10.1,55,0.00,,---,0.85,VWS V13.01,2013-03-10 01:04:00,
2013-03-09 18:09:00,43.9,30.1,30.08,WNW,283,8.3,10.1,58,0.00,,---,0.85,VWS V13.01,2013-03-10 01:09:00,
2013-03-09 18:14:00,43.7,28.6,30.08,WNW,292,6.3,10.1,55,0.00,,---,0.85,VWS V13.01,2013-03-10 01:14:00,
2013-03-09 18:19:00,43.0,29.6,30.08,West,264,9.6,10.1,59,0.00,,---,0.85,VWS V13.01,2013-03-10 01:19:00,
2013-03-09 18:25:00,42.6,30.9,30.08,WSW,257,5.8,10.1,63,0.00,,---,0.85,VWS V13.01,2013-03-10 01:25:00,
2013-03-09 18:30:00,42.6,30.1,30.08,WNW,290,6.3,10.1,61,0.00,,---,0.85,VWS V13.01,2013-03-10 01:30:00,
2013-03-09 18:35:00,42.3,30.6,30.08,WNW,289,8.7,10.1,63,0.00,,---,0.85,VWS V13.01,2013-03-10 01:35:00,
2013-03-09 18:40:00,42.3,30.2,30.08,WNW,297,5.4,10.1,62,0.00,,---,0.85,VWS V13.01,2013-03-10 01:40:00,
2013-03-09 18:45:00,42.1,30.0,30.08,WNW,295,5.8,10.1,62,0.00,,---,0.85,VWS V13.01,2013-03-10 01:45:00,
2013-03-09 18:50:00,42.1,31.6,30.08,NW,317,6.3,10.1,66,0.00,,---,0.85,VWS V13.01,2013-03-10 01:50:00,
2013-03-09 18:55:00,42.1,34.1,30.08,North,0,2.7,10.1,73,0.00,,---,0.85,VWS V13.01,2013-03-10 01:55:00,
2013-03-09 19:01:00,41.5,34.2,30.08,North,353,3.1,3.1,75,0.00,,---,0.85,VWS V13.01,2013-03-10 02:01:00,
2013-03-09 19:06:00,41.5,33.9,30.08,North,1,5.8,7.6,74,0.00,,---,0.85,VWS V13.01,2013-03-10 02:06:00,
2013-03-09 19:11:00,41.5,33.9,30.08,NW,306,5.4,8.1,74,0.00,,---,0.85,VWS V13.01,2013-03-10 02:11:00,
2013-03-09 19:16:00,41.5,33.9,30.08,NW,308,4.0,8.7,74,0.00,,---,0.85,VWS V13.01,2013-03-10 02:16:00,
2013-03-09 19:21:00,41.5,33.5,30.08,NW,311,7.6,8.7,73,0.00,,---,0.85,VWS V13.01,2013-03-10 02:21:00,
2013-03-09 19:26:00,41.5,33.2,30.08,NW,305,7.6,9.6,72,0.00,,---,0.85,VWS V13.01,2013-03-10 02:26:00,
2013-03-09 19:31:00,41.5,33.2,30.11,NW,318,7.6,11.0,72,0.00,,---,0.85,VWS V13.01,2013-03-10 02:31:00,
2013-03-09 19:37:00,41.5,33.2,30.11,NW,323,6.3,11.0,72,0.00,,---,0.85,VWS V13.01,2013-03-10 02:37:00,
2013-03-09 19:42:00,41.5,33.2,30.11,WNW,293,8.1,11.0,72,0.00,,---,0.85,VWS V13.01,2013-03-10 02:42:00,
2013-03-09 19:47:00,41.5,33.2,30.11,NNW,333,6.3,11.0,72,0.00,,---,0.85,VWS V13.01,2013-03-10 02:47:00,
2013-03-09 19:52:00,41.4,32.7,30.11,NW,313,8.1,11.0,71,0.00,,---,0.85,VWS V13.01,2013-03-10 02:52:00,
2013-03-09 19:57:00,41.4,32.7,30.11,WNW,298,5.8,11.0,71,0.00,,---,0.85,VWS V13.01,2013-03-10 02:57:00,
2013-03-09 20:03:00,41.2,32.5,30.11,NW,311,5.8,5.8,71,0.00,,---,0.85,VWS V13.01,2013-03-10 03:03:00,
2013-03-09 20:08:00,41.2,32.5,30.11,NW,320,4.9,5.8,71,0.00,,---,0.85,VWS V13.01,2013-03-10 03:08:00,
2013-03-09 20:13:00,41.0,32.3,30.11,NW,320,5.8,7.6,71,0.00,,---,0.85,VWS V13.01,2013-03-10 03:13:00,
2013-03-09 20:18:00,41.0,33.0,30.11,NNW,336,5.4,7.6,73,0.00,,---,0.85,VWS V13.01,2013-03-10 03:18:00,
2013-03-09 20:23:00,41.0,33.4,30.11,NW,308,5.4,7.6,74,0.00,,---,0.85,VWS V13.01,2013-03-10 03:23:00,
2013-03-09 20:28:00,41.0,32.0,30.11,NW,310,5.4,7.6,70,0.00,,---,0.85,VWS V13.01,2013-03-10 03:28:00,
2013-03-09 20:33:00,41.0,32.7,30.11,NW,316,4.9,7.6,72,0.00,,---,0.85,VWS V13.01,2013-03-10 03:33:00,
2013-03-09 20:38:00,41.0,33.0,30.11,WNW,295,5.4,7.6,73,0.00,,---,0.85,VWS V13.01,2013-03-10 03:38:00,
2013-03-09 20:44:00,41.2,33.2,30.11,NW,310,4.0,7.6,73,0.00,,---,0.85,VWS V13.01,2013-03-10 03:44:00,
2013-03-09 20:49:00,41.2,33.9,30.11,NW,325,4.0,7.6,75,0.00,,---,0.85,VWS V13.01,2013-03-10 03:49:00,
2013-03-09 20:54:00,41.2,33.2,30.11,NW,314,5.4,8.1,73,0.00,,---,0.85,VWS V13.01,2013-03-10 03:54:00,
2013-03-09 20:59:00,41.0,33.4,30.11,NNW,340,5.4,8.1,74,0.00,,---,0.85,VWS V13.01,2013-03-10 03:59:00,
2013-03-09 21:04:00,41.0,33.7,30.11,NW,322,6.3,6.7,75,0.00,,---,0.85,VWS V13.01,2013-03-10 04:04:00,
2013-03-09 21:09:00,40.8,33.2,30.11,NW,307,11.0,11.0,74,0.00,,---,0.85,VWS V13.01,2013-03-10 04:09:00,
2013-03-09 21:14:00,40.6,33.7,30.11,WNW,296,5.8,11.0,76,0.00,,---,0.85,VWS V13.01,2013-03-10 04:14:00,
2013-03-09 21:19:00,40.5,33.2,30.11,NW,324,5.4,11.0,75,0.00,,---,0.85,VWS V13.01,2013-03-10 04:19:00,
2013-03-09 21:25:00,40.3,32.7,30.11,NW,311,4.0,11.0,74,0.00,,---,0.85,VWS V13.01,2013-03-10 04:25:00,
2013-03-09 21:30:00,40.1,32.2,30.11,NW,304,4.0,11.0,73,0.00,,---,0.85,VWS V13.01,2013-03-10 04:30:00,
2013-03-09 21:35:00,39.7,32.5,30.11,NW,308,5.8,11.0,75,0.00,,---,0.85,VWS V13.01,2013-03-10 04:35:00,
2013-03-09 21:40:00,39.6,31.0,30.11,WNW,290,3.1,11.0,71,0.00,,---,0.85,VWS V13.01,2013-03-10 04:40:00,
2013-03-09 21:45:00,39.4,31.5,30.11,WNW,295,3.1,11.0,73,0.00,,---,0.85,VWS V13.01,2013-03-10 04:45:00,
2013-03-09 21:50:00,39.4,30.8,30.11,WNW,296,0.0,11.0,71,0.00,,---,0.85,VWS V13.01,2013-03-10 04:50:00,
2013-03-09 21:55:00,39.6,31.0,30.11,West,280,2.7,11.0,71,0.00,,---,0.85,VWS V13.01,2013-03-10 04:55:00,
2013-03-09 22:00:00,39.6,30.6,30.11,West,281,3.1,11.0,70,0.00,,---,0.85,VWS V13.01,2013-03-10 05:00:00,
2013-03-09 22:04:00,39.6,31.6,30.11,NW,314,3.1,4.9,73,0.00,,---,0.85,VWS V13.01,2013-03-10 05:04:00,
2013-03-09 22:09:00,39.7,32.1,30.11,NW,304,3.1,4.9,74,0.00,,---,0.85,VWS V13.01,2013-03-10 05:09:00,
2013-03-09 22:15:00,39.7,33.1,30.11,NW,314,4.0,4.9,77,0.00,,---,0.85,VWS V13.01,2013-03-10 05:15:00,
2013-03-09 22:20:00,39.9,33.3,30.11,NNW,327,4.0,4.9,77,0.00,,---,0.85,VWS V13.01,2013-03-10 05:20:00,
2013-03-09 22:25:00,39.9,32.7,30.11,NW,308,2.7,4.9,75,0.00,,---,0.85,VWS V13.01,2013-03-10 05:25:00,
2013-03-09 22:30:00,39.9,33.0,30.11,NW,306,3.6,5.8,76,0.00,,---,0.85,VWS V13.01,2013-03-10 05:30:00,
2013-03-09 22:35:00,39.9,33.0,30.11,NW,316,5.4,5.8,76,0.00,,---,0.85,VWS V13.01,2013-03-10 05:35:00,
2013-03-09 22:40:00,39.9,33.0,30.11,NNW,342,5.4,6.3,76,0.00,,---,0.85,VWS V13.01,2013-03-10 05:40:00,
2013-03-09 22:45:00,40.1,33.2,30.11,NNW,331,5.4,6.3,76,0.00,,---,0.85,VWS V13.01,2013-03-10 05:45:00,
2013-03-09 22:50:00,40.1,33.5,30.11,NW,316,5.8,7.6,77,0.00,,---,0.85,VWS V13.01,2013-03-10 05:50:00,
2013-03-09 22:55:00,40.1,33.2,30.11,NW,316,4.0,7.6,76,0.00,,---,0.85,VWS V13.01,2013-03-10 05:55:00,
2013-03-09 23:01:00,40.1,32.8,30.11,NW,326,7.6,8.1,75,0.00,,---,0.85,VWS V13.01,2013-03-10 06:01:00,
2013-03-09 23:06:00,39.9,33.0,30.11,NW,307,6.3,8.1,76,0.00,,---,0.85,VWS V13.01,2013-03-10 06:06:00,
2013-03-09 23:11:00,39.7,32.8,30.11,NW,309,5.4,8.1,76,0.00,,---,0.85,VWS V13.01,2013-03-10 06:11:00,
2013-03-09 23:16:00,39.6,32.6,30.11,NW,312,5.4,8.1,76,0.00,,---,0.85,VWS V13.01,2013-03-10 06:16:00,
2013-03-09 23:21:00,39.4,32.8,30.11,NW,311,4.9,8.1,77,0.00,,---,0.85,VWS V13.01,2013-03-10 06:21:00,
2013-03-09 23:26:00,39.4,32.1,30.11,NW,310,0.0,8.1,75,0.00,,---,0.85,VWS V13.01,2013-03-10 06:26:00,
2013-03-09 23:31:00,39.2,32.0,30.11,NW,310,0.0,8.1,75,0.00,,---,0.85,VWS V13.01,2013-03-10 06:31:00,
2013-03-09 23:36:00,39.4,31.8,30.11,NW,310,0.0,8.1,74,0.00,,---,0.85,VWS V13.01,2013-03-10 06:36:00,
2013-03-09 23:41:00,39.2,31.6,30.11,NW,310,0.0,8.1,74,0.00,,---,0.85,VWS V13.01,2013-03-10 06:41:00,
2013-03-09 23:46:00,39.2,31.3,30.11,NW,310,0.0,8.1,73,0.00,,---,0.85,VWS V13.01,2013-03-10 06:46:00,
2013-03-09 23:51:00,39.4,31.8,30.11,NW,310,0.0,8.1,74,0.00,,---,0.85,VWS V13.01,2013-03-10 06:51:00,
2013-03-09 23:57:00,39.4,32.1,30.11,NNW,330,0.0,8.1,75,0.00,,---,0.85,VWS V13.01,2013-03-10 06:57:00,